sensor_id;sensor_type;location;lat;lon;timestamp;P1;durP1;ratioP1;P2;durP2;ratioP2
60919;SDS011;59039;52.108;19.942;2023-04-03T00:01:37;5.00;;;2.50;;
60919;SDS011;59039;52.108;19.942;2023-04-03T00:04:02;4.50;;;2.20;;
60919;SDS011;59039;52.108;19.942;2023-04-03T00:06:28;2.80;;;2.00;;
60919;SDS011;59039;52.108;19.942;2023-04-03T00:08:56;8.00;;;2.80;;
60919;SDS011;59039;52.108;19.942;2023-04-03T00:11:22;4.60;;;2.40;;
60919;SDS011;59039;52.108;19.942;2023-04-03T00:13:56;5.50;;;2.50;;
60919;SDS011;59039;52.108;19.942;2023-04-03T00:16:21;4.30;;;2.50;;
60919;SDS011;59039;52.108;19.942;2023-04-03T00:18:47;5.40;;;2.20;;
60919;SDS011;59039;52.108;19.942;2023-04-03T00:21:12;7.60;;;2.40;;
60919;SDS011;59039;52.108;19.942;2023-04-03T00:23:45;5.90;;;2.20;;
60919;SDS011;59039;52.108;19.942;2023-04-03T00:26:11;4.90;;;2.60;;
60919;SDS011;59039;52.108;19.942;2023-04-03T00:28:36;7.70;;;2.70;;
60919;SDS011;59039;52.108;19.942;2023-04-03T00:31:02;5.70;;;3.00;;
60919;SDS011;59039;52.108;19.942;2023-04-03T00:33:30;7.50;;;2.80;;
60919;SDS011;59039;52.108;19.942;2023-04-03T00:35:55;4.80;;;2.80;;
60919;SDS011;59039;52.108;19.942;2023-04-03T00:38:21;6.30;;;2.40;;
60919;SDS011;59039;52.108;19.942;2023-04-03T00:40:47;6.80;;;3.30;;
60919;SDS011;59039;52.108;19.942;2023-04-03T00:43:18;3.10;;;2.50;;
60919;SDS011;59039;52.108;19.942;2023-04-03T00:45:48;6.00;;;2.30;;
60919;SDS011;59039;52.108;19.942;2023-04-03T00:48:36;5.90;;;2.40;;
60919;SDS011;59039;52.108;19.942;2023-04-03T00:51:05;4.60;;;2.20;;
60919;SDS011;59039;52.108;19.942;2023-04-03T00:53:39;3.70;;;2.30;;
60919;SDS011;59039;52.108;19.942;2023-04-03T00:56:10;5.00;;;2.40;;
60919;SDS011;59039;52.108;19.942;2023-04-03T00:58:44;5.80;;;3.10;;
60919;SDS011;59039;52.108;19.942;2023-04-03T01:01:16;5.40;;;2.30;;
60919;SDS011;59039;52.108;19.942;2023-04-03T01:03:46;6.70;;;2.40;;
60919;SDS011;59039;52.108;19.942;2023-04-03T01:06:13;5.10;;;2.70;;
60919;SDS011;59039;52.108;19.942;2023-04-03T01:08:48;5.10;;;2.40;;
60919;SDS011;59039;52.108;19.942;2023-04-03T01:11:15;4.80;;;2.60;;
60919;SDS011;59039;52.108;19.942;2023-04-03T01:13:43;4.70;;;2.50;;
60919;SDS011;59039;52.108;19.942;2023-04-03T01:16:09;7.10;;;2.40;;
60919;SDS011;59039;52.108;19.942;2023-04-03T01:18:35;8.70;;;2.90;;
60919;SDS011;59039;52.108;19.942;2023-04-03T01:29:18;5.80;;;2.60;;
60919;SDS011;59039;52.108;19.942;2023-04-03T01:31:48;3.70;;;2.40;;
60919;SDS011;59039;52.108;19.942;2023-04-03T01:34:15;4.90;;;2.60;;
60919;SDS011;59039;52.108;19.942;2023-04-03T01:36:42;3.10;;;2.00;;
60919;SDS011;59039;52.108;19.942;2023-04-03T01:39:10;4.40;;;1.90;;
60919;SDS011;59039;52.108;19.942;2023-04-03T01:41:42;4.90;;;2.50;;
60919;SDS011;59039;52.108;19.942;2023-04-03T01:44:30;5.10;;;2.40;;
60919;SDS011;59039;52.108;19.942;2023-04-03T01:46:55;5.10;;;2.50;;
60919;SDS011;59039;52.108;19.942;2023-04-03T01:49:23;5.50;;;1.90;;
60919;SDS011;59039;52.108;19.942;2023-04-03T01:51:49;5.30;;;1.70;;
60919;SDS011;59039;52.108;19.942;2023-04-03T01:54:15;3.40;;;1.80;;
60919;SDS011;59039;52.108;19.942;2023-04-03T01:56:42;8.70;;;2.00;;
60919;SDS011;59039;52.108;19.942;2023-04-03T01:59:08;2.60;;;1.60;;
60919;SDS011;59039;52.108;19.942;2023-04-03T02:01:39;3.90;;;1.90;;
60919;SDS011;59039;52.108;19.942;2023-04-03T02:04:09;6.20;;;2.50;;
60919;SDS011;59039;52.108;19.942;2023-04-03T02:06:35;3.40;;;1.90;;
60919;SDS011;59039;52.108;19.942;2023-04-03T02:09:00;8.00;;;2.40;;
60919;SDS011;59039;52.108;19.942;2023-04-03T02:11:28;3.30;;;2.10;;
60919;SDS011;59039;52.108;19.942;2023-04-03T02:13:57;4.10;;;2.00;;
60919;SDS011;59039;52.108;19.942;2023-04-03T02:16:22;9.20;;;4.70;;
60919;SDS011;59039;52.108;19.942;2023-04-03T02:18:47;7.00;;;2.10;;
60919;SDS011;59039;52.108;19.942;2023-04-03T02:21:13;4.10;;;2.10;;
60919;SDS011;59039;52.108;19.942;2023-04-03T02:23:39;5.30;;;2.10;;
60919;SDS011;59039;52.108;19.942;2023-04-03T02:26:09;5.10;;;1.90;;
60919;SDS011;59039;52.108;19.942;2023-04-03T02:28:36;3.40;;;1.90;;
60919;SDS011;59039;52.108;19.942;2023-04-03T02:31:02;3.00;;;1.70;;
60919;SDS011;59039;52.108;19.942;2023-04-03T02:36:09;2.90;;;1.90;;
60919;SDS011;59039;52.108;19.942;2023-04-03T02:38:35;2.00;;;1.70;;
60919;SDS011;59039;52.108;19.942;2023-04-03T02:41:01;2.20;;;1.70;;
60919;SDS011;59039;52.108;19.942;2023-04-03T02:43:29;4.30;;;2.10;;
60919;SDS011;59039;52.108;19.942;2023-04-03T02:45:58;3.70;;;1.90;;
60919;SDS011;59039;52.108;19.942;2023-04-03T02:48:23;2.80;;;1.80;;
60919;SDS011;59039;52.108;19.942;2023-04-03T02:50:52;4.10;;;2.00;;
60919;SDS011;59039;52.108;19.942;2023-04-03T02:53:18;3.90;;;1.90;;
60919;SDS011;59039;52.108;19.942;2023-04-03T02:55:46;6.10;;;2.10;;
60919;SDS011;59039;52.108;19.942;2023-04-03T02:58:11;3.10;;;1.90;;
60919;SDS011;59039;52.108;19.942;2023-04-03T03:00:37;3.70;;;2.30;;
60919;SDS011;59039;52.108;19.942;2023-04-03T03:03:03;3.20;;;2.20;;
60919;SDS011;59039;52.108;19.942;2023-04-03T03:05:29;5.70;;;2.50;;
60919;SDS011;59039;52.108;19.942;2023-04-03T03:07:58;3.60;;;2.10;;
60919;SDS011;59039;52.108;19.942;2023-04-03T03:10:23;6.00;;;2.20;;
60919;SDS011;59039;52.108;19.942;2023-04-03T03:12:51;6.50;;;2.20;;
60919;SDS011;59039;52.108;19.942;2023-04-03T03:15:16;3.20;;;1.60;;
60919;SDS011;59039;52.108;19.942;2023-04-03T03:17:42;3.50;;;1.80;;
60919;SDS011;59039;52.108;19.942;2023-04-03T03:20:11;4.60;;;2.30;;
60919;SDS011;59039;52.108;19.942;2023-04-03T03:22:37;3.00;;;2.00;;
60919;SDS011;59039;52.108;19.942;2023-04-03T03:25:03;8.50;;;2.30;;
60919;SDS011;59039;52.108;19.942;2023-04-03T03:30:07;3.90;;;2.10;;
60919;SDS011;59039;52.108;19.942;2023-04-03T03:32:32;3.60;;;2.00;;
60919;SDS011;59039;52.108;19.942;2023-04-03T03:34:58;5.10;;;2.20;;
60919;SDS011;59039;52.108;19.942;2023-04-03T03:37:33;5.00;;;2.00;;
60919;SDS011;59039;52.108;19.942;2023-04-03T03:40:10;3.70;;;1.90;;
60919;SDS011;59039;52.108;19.942;2023-04-03T03:42:39;3.10;;;2.10;;
60919;SDS011;59039;52.108;19.942;2023-04-03T03:45:13;3.60;;;2.20;;
60919;SDS011;59039;52.108;19.942;2023-04-03T03:47:42;6.10;;;2.50;;
60919;SDS011;59039;52.108;19.942;2023-04-03T03:50:08;7.60;;;2.20;;
60919;SDS011;59039;52.108;19.942;2023-04-03T03:52:37;5.90;;;2.40;;
60919;SDS011;59039;52.108;19.942;2023-04-03T03:55:02;7.60;;;3.10;;
60919;SDS011;59039;52.108;19.942;2023-04-03T03:57:28;4.60;;;2.30;;
60919;SDS011;59039;52.108;19.942;2023-04-03T03:59:53;4.70;;;2.20;;
60919;SDS011;59039;52.108;19.942;2023-04-03T04:02:19;4.40;;;2.40;;
60919;SDS011;59039;52.108;19.942;2023-04-03T04:05:07;6.90;;;2.50;;
60919;SDS011;59039;52.108;19.942;2023-04-03T04:07:36;6.30;;;2.60;;
60919;SDS011;59039;52.108;19.942;2023-04-03T04:10:04;4.60;;;2.70;;
60919;SDS011;59039;52.108;19.942;2023-04-03T04:12:30;7.00;;;3.30;;
60919;SDS011;59039;52.108;19.942;2023-04-03T04:14:56;7.60;;;3.10;;
60919;SDS011;59039;52.108;19.942;2023-04-03T04:17:21;10.00;;;3.30;;
60919;SDS011;59039;52.108;19.942;2023-04-03T04:19:47;7.50;;;2.50;;
60919;SDS011;59039;52.108;19.942;2023-04-03T04:22:12;7.90;;;3.00;;
60919;SDS011;59039;52.108;19.942;2023-04-03T04:24:38;7.10;;;2.90;;
60919;SDS011;59039;52.108;19.942;2023-04-03T04:27:03;7.00;;;2.60;;
60919;SDS011;59039;52.108;19.942;2023-04-03T04:29:37;5.80;;;2.70;;
60919;SDS011;59039;52.108;19.942;2023-04-03T04:32:08;5.50;;;2.70;;
60919;SDS011;59039;52.108;19.942;2023-04-03T04:34:39;7.50;;;3.00;;
60919;SDS011;59039;52.108;19.942;2023-04-03T04:37:07;6.60;;;2.60;;
60919;SDS011;59039;52.108;19.942;2023-04-03T04:39:33;5.90;;;2.90;;
60919;SDS011;59039;52.108;19.942;2023-04-03T04:41:58;6.10;;;3.00;;
60919;SDS011;59039;52.108;19.942;2023-04-03T04:44:24;5.70;;;2.70;;
60919;SDS011;59039;52.108;19.942;2023-04-03T04:46:52;7.00;;;2.60;;
60919;SDS011;59039;52.108;19.942;2023-04-03T04:49:37;3.80;;;2.30;;
60919;SDS011;59039;52.108;19.942;2023-04-03T04:52:13;5.00;;;2.20;;
60919;SDS011;59039;52.108;19.942;2023-04-03T04:54:39;3.40;;;2.30;;
60919;SDS011;59039;52.108;19.942;2023-04-03T04:57:04;6.00;;;2.60;;
60919;SDS011;59039;52.108;19.942;2023-04-03T04:59:30;3.10;;;2.20;;
60919;SDS011;59039;52.108;19.942;2023-04-03T05:02:00;3.90;;;2.10;;
60919;SDS011;59039;52.108;19.942;2023-04-03T05:04:26;3.70;;;2.20;;
60919;SDS011;59039;52.108;19.942;2023-04-03T05:06:54;5.90;;;2.70;;
60919;SDS011;59039;52.108;19.942;2023-04-03T05:09:22;3.40;;;2.20;;
60919;SDS011;59039;52.108;19.942;2023-04-03T05:11:50;5.00;;;2.00;;
60919;SDS011;59039;52.108;19.942;2023-04-03T05:14:18;3.70;;;2.30;;
60919;SDS011;59039;52.108;19.942;2023-04-03T05:16:57;3.80;;;2.10;;
60919;SDS011;59039;52.108;19.942;2023-04-03T05:19:22;3.80;;;2.60;;
60919;SDS011;59039;52.108;19.942;2023-04-03T05:21:48;5.60;;;2.70;;
60919;SDS011;59039;52.108;19.942;2023-04-03T05:24:16;6.20;;;2.90;;
60919;SDS011;59039;52.108;19.942;2023-04-03T05:26:44;5.40;;;2.90;;
60919;SDS011;59039;52.108;19.942;2023-04-03T05:29:15;5.40;;;2.40;;
60919;SDS011;59039;52.108;19.942;2023-04-03T05:31:41;6.90;;;3.10;;
60919;SDS011;59039;52.108;19.942;2023-04-03T05:34:18;5.50;;;2.90;;
60919;SDS011;59039;52.108;19.942;2023-04-03T05:37:04;3.80;;;2.30;;
60919;SDS011;59039;52.108;19.942;2023-04-03T05:39:32;5.80;;;2.80;;
60919;SDS011;59039;52.108;19.942;2023-04-03T05:41:57;4.40;;;2.60;;
60919;SDS011;59039;52.108;19.942;2023-04-03T05:44:23;4.00;;;2.50;;
60919;SDS011;59039;52.108;19.942;2023-04-03T05:46:51;6.10;;;3.10;;
60919;SDS011;59039;52.108;19.942;2023-04-03T05:49:16;7.20;;;3.70;;
60919;SDS011;59039;52.108;19.942;2023-04-03T05:51:53;6.50;;;2.70;;
60919;SDS011;59039;52.108;19.942;2023-04-03T05:54:31;5.60;;;2.80;;
60919;SDS011;59039;52.108;19.942;2023-04-03T05:56:57;9.10;;;2.90;;
60919;SDS011;59039;52.108;19.942;2023-04-03T05:59:22;6.60;;;3.20;;
60919;SDS011;59039;52.108;19.942;2023-04-03T06:02:23;7.80;;;3.20;;
60919;SDS011;59039;52.108;19.942;2023-04-03T06:04:47;6.70;;;3.00;;
60919;SDS011;59039;52.108;19.942;2023-04-03T06:07:18;5.00;;;3.10;;
60919;SDS011;59039;52.108;19.942;2023-04-03T06:09:57;7.40;;;3.70;;
60919;SDS011;59039;52.108;19.942;2023-04-03T06:12:28;6.00;;;2.70;;
60919;SDS011;59039;52.108;19.942;2023-04-03T06:15:04;6.20;;;3.20;;
60919;SDS011;59039;52.108;19.942;2023-04-03T06:17:39;6.80;;;3.00;;
60919;SDS011;59039;52.108;19.942;2023-04-03T06:25:55;6.50;;;2.90;;
60919;SDS011;59039;52.108;19.942;2023-04-03T06:28:21;5.50;;;2.70;;
60919;SDS011;59039;52.108;19.942;2023-04-03T06:30:46;7.30;;;2.90;;
60919;SDS011;59039;52.108;19.942;2023-04-03T06:33:20;6.90;;;3.30;;
60919;SDS011;59039;52.108;19.942;2023-04-03T06:36:06;6.00;;;2.70;;
60919;SDS011;59039;52.108;19.942;2023-04-03T06:38:34;7.70;;;3.10;;
60919;SDS011;59039;52.108;19.942;2023-04-03T06:41:00;4.80;;;2.80;;
60919;SDS011;59039;52.108;19.942;2023-04-03T06:43:30;7.80;;;3.20;;
60919;SDS011;59039;52.108;19.942;2023-04-03T06:46:04;5.20;;;2.60;;
60919;SDS011;59039;52.108;19.942;2023-04-03T06:48:30;5.90;;;3.00;;
60919;SDS011;59039;52.108;19.942;2023-04-03T06:53:50;6.80;;;3.20;;
60919;SDS011;59039;52.108;19.942;2023-04-03T06:56:27;6.00;;;2.80;;
60919;SDS011;59039;52.108;19.942;2023-04-03T06:59:00;5.80;;;2.60;;
60919;SDS011;59039;52.108;19.942;2023-04-03T07:01:38;8.50;;;3.20;;
60919;SDS011;59039;52.108;19.942;2023-04-03T07:04:04;8.10;;;3.20;;
60919;SDS011;59039;52.108;19.942;2023-04-03T07:06:30;8.00;;;3.70;;
60919;SDS011;59039;52.108;19.942;2023-04-03T07:08:58;9.90;;;4.10;;
60919;SDS011;59039;52.108;19.942;2023-04-03T07:11:28;7.80;;;3.30;;
60919;SDS011;59039;52.108;19.942;2023-04-03T07:14:03;6.90;;;3.30;;
60919;SDS011;59039;52.108;19.942;2023-04-03T07:16:31;8.10;;;3.90;;
60919;SDS011;59039;52.108;19.942;2023-04-03T07:19:00;6.80;;;2.90;;
60919;SDS011;59039;52.108;19.942;2023-04-03T07:21:29;5.30;;;2.60;;
60919;SDS011;59039;52.108;19.942;2023-04-03T07:23:57;9.40;;;3.30;;
60919;SDS011;59039;52.108;19.942;2023-04-03T07:26:43;6.30;;;2.90;;
60919;SDS011;59039;52.108;19.942;2023-04-03T07:29:17;7.80;;;3.20;;
60919;SDS011;59039;52.108;19.942;2023-04-03T07:31:45;6.70;;;3.20;;
60919;SDS011;59039;52.108;19.942;2023-04-03T07:34:10;10.30;;;3.00;;
60919;SDS011;59039;52.108;19.942;2023-04-03T07:36:39;9.10;;;3.40;;
60919;SDS011;59039;52.108;19.942;2023-04-03T07:39:04;5.80;;;2.80;;
60919;SDS011;59039;52.108;19.942;2023-04-03T07:41:46;8.90;;;3.20;;
60919;SDS011;59039;52.108;19.942;2023-04-03T07:44:14;8.10;;;3.00;;
60919;SDS011;59039;52.108;19.942;2023-04-03T07:46:39;5.00;;;2.60;;
60919;SDS011;59039;52.108;19.942;2023-04-03T07:49:05;6.00;;;2.80;;
60919;SDS011;59039;52.108;19.942;2023-04-03T07:51:40;6.10;;;2.90;;
60919;SDS011;59039;52.108;19.942;2023-04-03T07:54:11;6.80;;;2.80;;
60919;SDS011;59039;52.108;19.942;2023-04-03T07:56:36;8.30;;;3.10;;
60919;SDS011;59039;52.108;19.942;2023-04-03T07:59:09;7.10;;;3.20;;
60919;SDS011;59039;52.108;19.942;2023-04-03T08:01:35;6.40;;;2.80;;
60919;SDS011;59039;52.108;19.942;2023-04-03T08:04:03;7.30;;;2.70;;
60919;SDS011;59039;52.108;19.942;2023-04-03T08:06:48;7.60;;;3.20;;
60919;SDS011;59039;52.108;19.942;2023-04-03T08:09:15;6.50;;;2.90;;
60919;SDS011;59039;52.108;19.942;2023-04-03T08:11:40;5.40;;;2.70;;
60919;SDS011;59039;52.108;19.942;2023-04-03T08:14:13;10.20;;;3.00;;
60919;SDS011;59039;52.108;19.942;2023-04-03T08:16:39;7.80;;;3.00;;
60919;SDS011;59039;52.108;19.942;2023-04-03T08:19:04;5.60;;;2.40;;
60919;SDS011;59039;52.108;19.942;2023-04-03T08:21:29;5.60;;;2.50;;
60919;SDS011;59039;52.108;19.942;2023-04-03T08:23:55;5.80;;;2.80;;
60919;SDS011;59039;52.108;19.942;2023-04-03T08:26:26;6.40;;;2.90;;
60919;SDS011;59039;52.108;19.942;2023-04-03T08:28:53;6.10;;;2.50;;
60919;SDS011;59039;52.108;19.942;2023-04-03T08:31:40;6.90;;;2.80;;
60919;SDS011;59039;52.108;19.942;2023-04-03T08:34:07;5.40;;;2.30;;
60919;SDS011;59039;52.108;19.942;2023-04-03T08:36:35;4.50;;;2.20;;
60919;SDS011;59039;52.108;19.942;2023-04-03T08:39:00;6.50;;;2.80;;
60919;SDS011;59039;52.108;19.942;2023-04-03T08:47:20;7.80;;;2.50;;
60919;SDS011;59039;52.108;19.942;2023-04-03T08:49:52;4.80;;;2.60;;
60919;SDS011;59039;52.108;19.942;2023-04-03T08:52:37;9.70;;;2.40;;
60919;SDS011;59039;52.108;19.942;2023-04-03T08:55:22;5.00;;;2.50;;
60919;SDS011;59039;52.108;19.942;2023-04-03T08:58:05;10.20;;;2.60;;
60919;SDS011;59039;52.108;19.942;2023-04-03T09:00:46;5.30;;;2.70;;
60919;SDS011;59039;52.108;19.942;2023-04-03T09:06:36;2.50;;;1.50;;
60919;SDS011;59039;52.108;19.942;2023-04-03T09:14:13;3.90;;;1.90;;
60919;SDS011;59039;52.108;19.942;2023-04-03T09:22:33;4.60;;;2.50;;
60919;SDS011;59039;52.108;19.942;2023-04-03T09:25:11;9.10;;;2.10;;
60919;SDS011;59039;52.108;19.942;2023-04-03T09:30:50;4.10;;;2.20;;
60919;SDS011;59039;52.108;19.942;2023-04-03T09:33:16;3.90;;;1.90;;
60919;SDS011;59039;52.108;19.942;2023-04-03T09:35:45;5.50;;;2.60;;
60919;SDS011;59039;52.108;19.942;2023-04-03T09:40:44;5.40;;;2.20;;
60919;SDS011;59039;52.108;19.942;2023-04-03T09:43:32;3.00;;;2.10;;
60919;SDS011;59039;52.108;19.942;2023-04-03T09:46:20;4.10;;;1.80;;
60919;SDS011;59039;52.108;19.942;2023-04-03T09:48:57;4.90;;;2.30;;
60919;SDS011;59039;52.108;19.942;2023-04-03T09:51:45;4.40;;;2.10;;
60919;SDS011;59039;52.108;19.942;2023-04-03T09:54:32;4.40;;;2.20;;
60919;SDS011;59039;52.108;19.942;2023-04-03T09:57:12;3.00;;;1.80;;
60919;SDS011;59039;52.108;19.942;2023-04-03T09:59:45;4.10;;;2.10;;
60919;SDS011;59039;52.108;19.942;2023-04-03T10:02:32;4.60;;;2.40;;
60919;SDS011;59039;52.108;19.942;2023-04-03T10:04:59;3.10;;;2.40;;
60919;SDS011;59039;52.108;19.942;2023-04-03T10:07:29;3.60;;;1.80;;
60919;SDS011;59039;52.108;19.942;2023-04-03T10:12:42;3.80;;;2.20;;
60919;SDS011;59039;52.108;19.942;2023-04-03T10:15:17;3.60;;;1.80;;
60919;SDS011;59039;52.108;19.942;2023-04-03T10:23:22;4.20;;;2.30;;
60919;SDS011;59039;52.108;19.942;2023-04-03T10:28:29;5.30;;;2.60;;
60919;SDS011;59039;52.108;19.942;2023-04-03T10:31:25;5.40;;;2.70;;
60919;SDS011;59039;52.108;19.942;2023-04-03T10:39:51;4.60;;;2.50;;
60919;SDS011;59039;52.108;19.942;2023-04-03T10:50:47;6.80;;;2.70;;
60919;SDS011;59039;52.108;19.942;2023-04-03T11:08:23;4.10;;;2.00;;
60919;SDS011;59039;52.108;19.942;2023-04-03T11:11:13;4.20;;;2.50;;
60919;SDS011;59039;52.108;19.942;2023-04-03T11:14:31;4.20;;;2.10;;
60919;SDS011;59039;52.108;19.942;2023-04-03T11:17:11;5.80;;;2.30;;
60919;SDS011;59039;52.108;19.942;2023-04-03T11:19:39;5.10;;;2.60;;
60919;SDS011;59039;52.108;19.942;2023-04-03T11:27:53;6.30;;;2.00;;
60919;SDS011;59039;52.108;19.942;2023-04-03T11:30:26;4.00;;;2.40;;
60919;SDS011;59039;52.108;19.942;2023-04-03T11:35:52;3.60;;;1.90;;
60919;SDS011;59039;52.108;19.942;2023-04-03T11:38:35;4.30;;;2.30;;
60919;SDS011;59039;52.108;19.942;2023-04-03T11:41:04;5.00;;;2.50;;
60919;SDS011;59039;52.108;19.942;2023-04-03T11:55:52;3.70;;;2.00;;
60919;SDS011;59039;52.108;19.942;2023-04-03T12:08:49;5.70;;;2.50;;
60919;SDS011;59039;52.108;19.942;2023-04-03T12:14:20;4.10;;;2.10;;
60919;SDS011;59039;52.108;19.942;2023-04-03T12:16:58;3.30;;;1.80;;
60919;SDS011;59039;52.108;19.942;2023-04-03T12:19:35;2.80;;;2.10;;
60919;SDS011;59039;52.108;19.942;2023-04-03T12:24:33;3.40;;;1.80;;
60919;SDS011;59039;52.108;19.942;2023-04-03T12:27:25;8.00;;;2.20;;
60919;SDS011;59039;52.108;19.942;2023-04-03T12:30:05;5.90;;;2.40;;
60919;SDS011;59039;52.108;19.942;2023-04-03T12:35:30;5.10;;;2.50;;
60919;SDS011;59039;52.108;19.942;2023-04-03T12:46:45;2.40;;;1.60;;
60919;SDS011;59039;52.108;19.942;2023-04-03T12:51:45;4.00;;;2.20;;
60919;SDS011;59039;52.108;19.942;2023-04-03T12:56:47;5.50;;;2.30;;
60919;SDS011;59039;52.108;19.942;2023-04-03T12:59:23;4.00;;;2.10;;
60919;SDS011;59039;52.108;19.942;2023-04-03T13:02:10;5.00;;;2.20;;
60919;SDS011;59039;52.108;19.942;2023-04-03T13:04:54;3.90;;;2.10;;
60919;SDS011;59039;52.108;19.942;2023-04-03T13:07:42;3.00;;;1.80;;
60919;SDS011;59039;52.108;19.942;2023-04-03T13:15:51;4.90;;;2.20;;
60919;SDS011;59039;52.108;19.942;2023-04-03T13:18:37;3.30;;;2.30;;
60919;SDS011;59039;52.108;19.942;2023-04-03T13:23:58;7.00;;;2.90;;
60919;SDS011;59039;52.108;19.942;2023-04-03T13:26:26;4.10;;;1.90;;
60919;SDS011;59039;52.108;19.942;2023-04-03T13:29:03;6.00;;;2.50;;
60919;SDS011;59039;52.108;19.942;2023-04-03T13:31:53;5.20;;;2.90;;
60919;SDS011;59039;52.108;19.942;2023-04-03T13:34:24;4.80;;;2.30;;
60919;SDS011;59039;52.108;19.942;2023-04-03T13:36:56;4.90;;;2.10;;
60919;SDS011;59039;52.108;19.942;2023-04-03T13:39:42;3.80;;;2.00;;
60919;SDS011;59039;52.108;19.942;2023-04-03T13:42:15;4.50;;;2.10;;
60919;SDS011;59039;52.108;19.942;2023-04-03T13:44:46;4.50;;;2.10;;
60919;SDS011;59039;52.108;19.942;2023-04-03T13:47:16;4.00;;;2.00;;
60919;SDS011;59039;52.108;19.942;2023-04-03T13:52:49;3.70;;;2.10;;
60919;SDS011;59039;52.108;19.942;2023-04-03T13:55:31;5.70;;;2.30;;
60919;SDS011;59039;52.108;19.942;2023-04-03T14:03:12;6.60;;;2.10;;
60919;SDS011;59039;52.108;19.942;2023-04-03T14:05:58;5.30;;;2.90;;
60919;SDS011;59039;52.108;19.942;2023-04-03T14:08:24;4.80;;;2.20;;
60919;SDS011;59039;52.108;19.942;2023-04-03T14:10:50;4.40;;;2.30;;
60919;SDS011;59039;52.108;19.942;2023-04-03T14:13:17;5.60;;;2.30;;
60919;SDS011;59039;52.108;19.942;2023-04-03T14:15:44;4.10;;;2.30;;
60919;SDS011;59039;52.108;19.942;2023-04-03T14:18:15;3.80;;;2.00;;
60919;SDS011;59039;52.108;19.942;2023-04-03T14:20:45;6.60;;;2.80;;
60919;SDS011;59039;52.108;19.942;2023-04-03T14:23:10;6.70;;;2.50;;
60919;SDS011;59039;52.108;19.942;2023-04-03T14:25:36;4.80;;;2.30;;
60919;SDS011;59039;52.108;19.942;2023-04-03T14:28:07;9.20;;;3.30;;
60919;SDS011;59039;52.108;19.942;2023-04-03T14:30:39;9.20;;;3.20;;
60919;SDS011;59039;52.108;19.942;2023-04-03T14:33:05;6.70;;;3.30;;
60919;SDS011;59039;52.108;19.942;2023-04-03T14:35:31;9.10;;;3.90;;
60919;SDS011;59039;52.108;19.942;2023-04-03T14:38:01;7.90;;;3.40;;
60919;SDS011;59039;52.108;19.942;2023-04-03T14:40:29;5.90;;;2.30;;
60919;SDS011;59039;52.108;19.942;2023-04-03T14:42:55;7.60;;;3.30;;
60919;SDS011;59039;52.108;19.942;2023-04-03T14:45:28;6.60;;;2.80;;
60919;SDS011;59039;52.108;19.942;2023-04-03T14:47:54;7.20;;;3.40;;
60919;SDS011;59039;52.108;19.942;2023-04-03T14:50:22;5.30;;;3.00;;
60919;SDS011;59039;52.108;19.942;2023-04-03T14:52:50;8.10;;;2.90;;
60919;SDS011;59039;52.108;19.942;2023-04-03T14:55:18;6.20;;;2.70;;
60919;SDS011;59039;52.108;19.942;2023-04-03T14:57:53;8.30;;;3.10;;
60919;SDS011;59039;52.108;19.942;2023-04-03T15:00:19;6.00;;;2.60;;
60919;SDS011;59039;52.108;19.942;2023-04-03T15:02:46;6.80;;;3.30;;
60919;SDS011;59039;52.108;19.942;2023-04-03T15:05:12;9.10;;;2.90;;
60919;SDS011;59039;52.108;19.942;2023-04-03T15:07:42;5.40;;;3.20;;
60919;SDS011;59039;52.108;19.942;2023-04-03T15:12:45;5.60;;;2.80;;
60919;SDS011;59039;52.108;19.942;2023-04-03T15:15:12;5.60;;;2.90;;
60919;SDS011;59039;52.108;19.942;2023-04-03T15:17:38;7.20;;;2.50;;
60919;SDS011;59039;52.108;19.942;2023-04-03T15:20:10;6.10;;;2.90;;
60919;SDS011;59039;52.108;19.942;2023-04-03T15:22:41;7.60;;;3.00;;
60919;SDS011;59039;52.108;19.942;2023-04-03T15:25:09;4.70;;;2.80;;
60919;SDS011;59039;52.108;19.942;2023-04-03T15:27:42;8.40;;;4.00;;
60919;SDS011;59039;52.108;19.942;2023-04-03T15:30:10;9.80;;;3.80;;
60919;SDS011;59039;52.108;19.942;2023-04-03T15:32:39;7.40;;;3.00;;
60919;SDS011;59039;52.108;19.942;2023-04-03T15:35:10;6.00;;;2.90;;
60919;SDS011;59039;52.108;19.942;2023-04-03T15:37:35;6.20;;;2.80;;
60919;SDS011;59039;52.108;19.942;2023-04-03T15:40:01;6.00;;;2.80;;
60919;SDS011;59039;52.108;19.942;2023-04-03T15:42:37;4.60;;;3.00;;
60919;SDS011;59039;52.108;19.942;2023-04-03T15:45:02;6.90;;;3.00;;
60919;SDS011;59039;52.108;19.942;2023-04-03T15:47:28;6.30;;;2.90;;
60919;SDS011;59039;52.108;19.942;2023-04-03T15:49:54;8.00;;;2.70;;
60919;SDS011;59039;52.108;19.942;2023-04-03T15:52:20;6.00;;;2.80;;
60919;SDS011;59039;52.108;19.942;2023-04-03T15:54:46;6.00;;;2.90;;
60919;SDS011;59039;52.108;19.942;2023-04-03T15:57:24;4.40;;;2.80;;
60919;SDS011;59039;52.108;19.942;2023-04-03T15:59:58;7.60;;;2.90;;
60919;SDS011;59039;52.108;19.942;2023-04-03T16:02:24;6.00;;;3.40;;
60919;SDS011;59039;52.108;19.942;2023-04-03T16:04:49;6.20;;;3.20;;
60919;SDS011;59039;52.108;19.942;2023-04-03T16:07:15;6.40;;;3.40;;
60919;SDS011;59039;52.108;19.942;2023-04-03T16:09:40;4.60;;;2.80;;
60919;SDS011;59039;52.108;19.942;2023-04-03T16:14:44;8.20;;;3.70;;
60919;SDS011;59039;52.108;19.942;2023-04-03T16:17:15;9.70;;;3.60;;
60919;SDS011;59039;52.108;19.942;2023-04-03T16:19:43;8.00;;;3.70;;
60919;SDS011;59039;52.108;19.942;2023-04-03T16:22:09;10.30;;;3.90;;
60919;SDS011;59039;52.108;19.942;2023-04-03T16:24:34;8.60;;;3.80;;
60919;SDS011;59039;52.108;19.942;2023-04-03T16:26:59;7.10;;;4.20;;
60919;SDS011;59039;52.108;19.942;2023-04-03T16:29:25;7.10;;;4.00;;
60919;SDS011;59039;52.108;19.942;2023-04-03T16:31:50;7.60;;;4.00;;
60919;SDS011;59039;52.108;19.942;2023-04-03T16:34:19;10.10;;;4.50;;
60919;SDS011;59039;52.108;19.942;2023-04-03T16:36:44;10.90;;;4.80;;
60919;SDS011;59039;52.108;19.942;2023-04-03T16:39:09;11.10;;;5.80;;
60919;SDS011;59039;52.108;19.942;2023-04-03T16:41:37;13.00;;;5.30;;
60919;SDS011;59039;52.108;19.942;2023-04-03T16:44:03;11.60;;;5.30;;
60919;SDS011;59039;52.108;19.942;2023-04-03T16:46:30;10.00;;;4.90;;
60919;SDS011;59039;52.108;19.942;2023-04-03T16:48:56;8.30;;;4.30;;
60919;SDS011;59039;52.108;19.942;2023-04-03T16:51:21;7.60;;;4.20;;
60919;SDS011;59039;52.108;19.942;2023-04-03T16:53:47;6.80;;;3.70;;
60919;SDS011;59039;52.108;19.942;2023-04-03T16:56:12;9.40;;;4.90;;
60919;SDS011;59039;52.108;19.942;2023-04-03T16:58:38;8.30;;;3.90;;
60919;SDS011;59039;52.108;19.942;2023-04-03T17:01:14;9.40;;;5.20;;
60919;SDS011;59039;52.108;19.942;2023-04-03T17:03:46;9.70;;;4.20;;
60919;SDS011;59039;52.108;19.942;2023-04-03T17:06:20;10.30;;;4.50;;
60919;SDS011;59039;52.108;19.942;2023-04-03T17:08:50;11.00;;;4.70;;
60919;SDS011;59039;52.108;19.942;2023-04-03T17:11:17;9.90;;;4.60;;
60919;SDS011;59039;52.108;19.942;2023-04-03T17:13:43;13.60;;;5.70;;
60919;SDS011;59039;52.108;19.942;2023-04-03T17:16:09;13.60;;;5.20;;
60919;SDS011;59039;52.108;19.942;2023-04-03T17:18:38;9.30;;;3.90;;
60919;SDS011;59039;52.108;19.942;2023-04-03T17:21:04;6.30;;;3.80;;
60919;SDS011;59039;52.108;19.942;2023-04-03T17:23:30;12.60;;;5.30;;
60919;SDS011;59039;52.108;19.942;2023-04-03T17:26:00;13.70;;;5.30;;
60919;SDS011;59039;52.108;19.942;2023-04-03T17:28:29;20.00;;;7.50;;
60919;SDS011;59039;52.108;19.942;2023-04-03T17:30:55;10.40;;;4.40;;
60919;SDS011;59039;52.108;19.942;2023-04-03T17:33:22;8.50;;;3.60;;
60919;SDS011;59039;52.108;19.942;2023-04-03T17:35:47;9.30;;;4.00;;